createdAt,value
2023-01-19T00:00:55.603Z,160.42
2023-01-19T00:01:55.999Z,196.59
2023-01-19T00:02:56.077Z,158.92
2023-01-19T00:03:56.427Z,199.85
2023-01-19T00:04:56.480Z,174.79
2023-01-19T00:05:56.788Z,156.09
2023-01-19T00:06:57.013Z,168.37
2023-01-19T00:07:57.191Z,166.21
2023-01-19T00:08:57.437Z,141.98
2023-01-19T00:09:57.626Z,125.04
2023-01-19T00:10:57.818Z,158.76
2023-01-19T00:11:58.241Z,168.23
2023-01-19T00:12:58.625Z,173.57
2023-01-19T00:13:58.064Z,169.57
2023-01-19T00:14:57.967Z,175.25
2023-01-19T00:15:58.211Z,132.91
2023-01-19T00:16:58.534Z,131.01
2023-01-19T00:17:58.568Z,126.31
2023-01-19T00:18:58.782Z,100.37
2023-01-19T00:19:59.274Z,140.96
2023-01-19T00:20:59.189Z,138.53
2023-01-19T00:21:59.382Z,129.71
2023-01-19T00:23:00.074Z,147.35
2023-01-19T00:23:59.487Z,149.69
2023-01-19T00:24:59.341Z,106.84
2023-01-19T00:25:59.247Z,114.69
2023-01-19T00:26:59.151Z,123.49
2023-01-19T00:28:00.597Z,126.14
2023-01-19T00:28:59.057Z,130.40
2023-01-19T00:29:58.929Z,153.00
2023-01-19T00:30:58.839Z,153.82
2023-01-19T00:31:58.690Z,134.17
2023-01-19T00:32:59.118Z,119.30
2023-01-19T00:33:58.652Z,101.73
2023-01-19T00:34:58.545Z,98.97
2023-01-19T00:35:58.586Z,126.27
2023-01-19T00:36:58.236Z,122.17
2023-01-19T00:37:58.076Z,122.21
2023-01-19T00:38:58.121Z,119.18
2023-01-19T00:39:58.456Z,165.63
2023-01-19T00:40:58.538Z,149.42
2023-01-19T00:41:58.764Z,126.32
2023-01-19T00:42:59.299Z,132.54
2023-01-19T00:43:58.899Z,153.39
2023-01-19T00:44:59.176Z,164.31
2023-01-19T00:45:58.774Z,156.00
2023-01-19T00:46:58.566Z,185.49
2023-01-19T00:47:58.491Z,125.46
2023-01-19T00:48:58.175Z,119.52
2023-01-19T00:49:58.002Z,87.27
2023-01-19T00:50:57.906Z,111.51
2023-01-19T00:51:57.773Z,154.96
2023-01-19T00:52:57.881Z,157.24
2023-01-19T00:53:57.413Z,152.31
2023-01-19T00:54:57.287Z,150.96
2023-01-19T00:55:57.099Z,192.32
2023-01-19T00:56:57.003Z,157.61
2023-01-19T00:57:56.778Z,103.35
2023-01-19T00:58:56.605Z,104.87
2023-01-19T00:59:56.449Z,153.88
2023-01-19T01:00:56.362Z,181.71
2023-01-19T01:01:56.512Z,149.87
2023-01-19T01:02:56.082Z,144.92
2023-01-19T01:03:55.924Z,122.38
2023-01-19T01:04:55.744Z,160.11
2023-01-19T01:05:55.595Z,143.37
2023-01-19T02:08:55.673Z,209.45
2023-01-19T02:09:55.906Z,225.35
2023-01-19T02:10:56.171Z,198.41
2023-01-19T02:11:56.456Z,204.26
2023-01-19T02:12:56.670Z,185.76
2023-01-19T02:13:56.949Z,249.91
2023-01-19T02:14:57.264Z,213.07
2023-01-19T02:15:57.420Z,237.06
2023-01-19T02:16:57.713Z,204.39
2023-01-19T02:17:57.897Z,140.03
2023-01-19T02:18:58.104Z,113.68
2023-01-19T02:19:58.405Z,146.31
2023-01-19T02:20:58.596Z,141.44
2023-01-19T02:21:58.735Z,141.51
2023-01-19T02:22:59.468Z,193.78
2023-01-19T02:23:58.808Z,234.67
2023-01-19T02:24:58.606Z,145.94
2023-01-19T02:25:58.744Z,135.02
2023-01-19T02:26:59.054Z,149.01
2023-01-19T02:27:59.200Z,181.82
2023-01-19T02:28:59.437Z,232.15
2023-01-19T02:29:59.592Z,191.77
2023-01-19T02:30:59.796Z,156.77
2023-01-19T02:31:59.977Z,204.21
2023-01-19T02:33:00.473Z,144.20
2023-01-19T02:33:59.973Z,160.30
2023-01-19T02:34:59.904Z,179.01
2023-01-19T02:36:00.137Z,161.48
2023-01-19T02:37:00.351Z,178.79
2023-01-19T02:58:06.182Z,97.76
2023-01-19T02:59:06.426Z,117.03
2023-01-19T03:00:06.740Z,142.57
2023-01-19T03:01:07.111Z,122.75
2023-01-19T03:02:07.307Z,144.08
2023-01-19T03:03:07.473Z,156.03
2023-01-19T03:04:07.660Z,136.81
2023-01-19T03:05:07.999Z,120.86
2023-01-19T03:06:08.216Z,135.97
2023-01-19T03:07:08.483Z,133.01
2023-01-19T03:08:08.809Z,156.67
2023-01-19T03:09:09.054Z,161.80
2023-01-19T03:10:09.299Z,147.46
2023-01-19T03:11:09.518Z,153.42
2023-01-19T03:12:09.699Z,120.95
2023-01-19T03:13:09.965Z,67.23
2023-01-19T03:14:10.216Z,45.51
2023-01-19T03:15:10.514Z,74.04
2023-01-19T03:37:15.591Z,138.73
2023-01-19T03:38:15.843Z,142.73
2023-01-19T03:43:17.020Z,142.24
2023-01-19T03:44:17.188Z,113.77
2023-01-19T03:45:17.334Z,144.50
2023-01-19T03:46:17.693Z,118.42
2023-01-19T03:47:17.773Z,113.75
2023-01-19T03:48:18.077Z,101.43
2023-01-19T03:49:18.304Z,116.88
2023-01-19T03:50:18.398Z,96.70
2023-01-19T03:51:18.615Z,109.30
2023-01-19T03:52:18.817Z,107.67
2023-01-19T03:53:19.015Z,112.21
2023-01-19T03:54:19.245Z,77.93
2023-01-19T03:55:19.407Z,94.86
2023-01-19T03:56:19.589Z,85.13
2023-01-19T03:57:19.839Z,83.26
2023-01-19T03:58:19.964Z,81.30
2023-01-19T04:24:25.594Z,105.61
2023-01-19T04:25:25.912Z,121.99
2023-01-19T04:26:26.038Z,119.63
2023-01-19T04:27:26.264Z,95.80
2023-01-19T04:28:26.511Z,86.76
2023-01-19T04:29:26.741Z,70.72
2023-01-19T05:12:35.607Z,113.94
2023-01-19T05:13:35.972Z,96.09
2023-01-19T05:14:36.122Z,90.15
2023-01-19T05:21:36.856Z,65.48
2023-01-19T05:22:37.134Z,87.11
2023-01-19T05:23:37.414Z,211.55
2023-01-19T05:58:45.635Z,158.19
2023-01-19T05:59:45.915Z,132.66
2023-01-19T06:00:46.064Z,133.94
2023-01-19T06:01:46.447Z,129.68
2023-01-19T06:02:46.622Z,77.81
2023-01-19T06:03:46.829Z,83.08
2023-01-19T06:04:47.043Z,89.14
2023-01-19T06:05:47.254Z,110.48
2023-01-19T06:06:47.591Z,107.17
2023-01-19T06:07:47.743Z,68.09
2023-01-19T06:08:47.971Z,66.28
2023-01-19T06:09:48.277Z,71.64
2023-01-19T06:10:48.523Z,70.13
2023-01-19T06:11:48.787Z,93.48
2023-01-19T06:12:48.931Z,128.60
2023-01-19T06:13:49.129Z,95.31
2023-01-19T06:14:49.365Z,88.92
2023-01-19T06:15:49.659Z,96.98
2023-01-19T06:16:49.801Z,87.00
2023-01-19T06:17:50.017Z,88.46
2023-01-19T06:18:50.247Z,87.79
2023-01-19T06:19:50.524Z,80.05
2023-01-19T06:20:50.891Z,82.61
2023-01-19T06:21:50.995Z,98.60
2023-01-19T06:22:51.199Z,108.67
2023-01-19T06:23:51.458Z,96.29
2023-01-19T06:24:51.623Z,76.64
2023-01-19T06:25:51.934Z,50.53
2023-01-19T06:26:52.170Z,31.48
2023-01-19T06:27:52.390Z,47.96
2023-01-19T06:28:52.634Z,72.70
2023-01-19T06:29:52.882Z,92.09
2023-01-19T06:30:53.122Z,104.21
2023-01-19T06:31:53.364Z,93.33
2023-01-19T06:32:53.643Z,115.87
2023-01-19T06:33:53.891Z,107.12
2023-01-19T06:34:54.243Z,97.93
2023-01-19T06:35:55.450Z,71.25
2023-01-19T06:36:54.164Z,57.41
2023-01-19T06:37:54.143Z,93.22
2023-01-19T06:38:53.953Z,109.11
2023-01-19T06:39:54.118Z,74.85
2023-01-19T06:40:54.381Z,80.43
2023-01-19T06:41:54.514Z,83.29
2023-01-19T06:42:54.751Z,103.22
2023-01-19T06:43:55.143Z,82.37
2023-01-19T06:44:55.274Z,33.62
2023-01-19T06:45:55.559Z,38.34
2023-01-19T06:47:15.840Z,73.76
2023-01-19T06:47:56.582Z,74.75
2023-01-19T06:48:55.403Z,81.01
2023-01-19T06:49:55.470Z,92.71
2023-01-19T06:50:58.431Z,114.81
2023-01-19T06:51:55.555Z,176.08
2023-01-19T06:52:55.406Z,188.21
2023-01-19T06:53:55.667Z,139.55
2023-01-19T06:54:55.512Z,135.34
2023-01-19T06:55:55.163Z,85.74
2023-01-19T06:56:55.084Z,109.12
2023-01-19T06:57:54.872Z,110.86
2023-01-19T06:58:54.718Z,117.34
2023-01-19T06:59:54.561Z,130.00
2023-01-19T07:00:54.472Z,134.63
2023-01-19T07:01:54.585Z,139.31
2023-01-19T07:02:54.625Z,118.45
2023-01-19T07:03:54.816Z,135.96
2023-01-19T07:04:55.169Z,98.18
2023-01-19T07:05:55.340Z,95.20
2023-01-19T07:06:55.599Z,92.61
2023-01-19T07:07:55.864Z,91.66
2023-01-19T07:08:56.187Z,100.26
2023-01-19T07:09:56.281Z,103.30
2023-01-19T07:11:22.402Z,93.59
2023-01-19T07:11:57.374Z,93.77
2023-01-19T07:12:56.364Z,67.88
2023-01-19T07:13:56.349Z,94.02
2023-01-19T07:14:56.577Z,90.53
2023-01-19T07:15:56.855Z,73.57
2023-01-19T07:16:57.106Z,68.07
2023-01-19T07:17:57.416Z,24.47
2023-01-19T07:18:57.804Z,21.49
2023-01-19T07:20:58.196Z,88.01
2023-01-19T08:09:05.791Z,188.48
2023-01-19T08:11:05.848Z,188.41
2023-01-19T08:13:05.550Z,194.10
2023-01-19T08:21:05.666Z,198.96
2023-01-19T08:22:05.913Z,181.83
2023-01-19T08:23:06.199Z,182.25
2023-01-19T08:24:06.633Z,177.92
2023-01-19T08:25:06.702Z,182.09
2023-01-19T08:26:06.927Z,179.24
2023-01-19T08:29:06.875Z,173.46
2023-01-19T08:32:07.539Z,153.91
2023-01-19T09:30:16.036Z,87.43
2023-01-19T09:33:16.029Z,103.24
2023-01-19T09:38:15.612Z,90.48
2023-01-19T09:39:16.615Z,83.13
2023-01-19T09:40:15.881Z,87.87
2023-01-19T09:41:15.696Z,93.87
2023-01-19T09:42:15.581Z,88.73
2023-01-19T09:43:15.823Z,71.95
2023-01-19T09:44:16.090Z,81.58
2023-01-19T09:45:16.491Z,99.87
2023-01-19T09:46:17.321Z,74.17
2023-01-19T09:47:16.059Z,77.00
2023-01-19T09:48:15.930Z,100.07
2023-01-19T09:49:15.954Z,84.97
2023-01-19T09:50:16.178Z,92.32
2023-01-19T09:51:16.491Z,111.48
2023-01-19T09:52:17.155Z,108.77
2023-01-19T09:54:16.804Z,115.95
2023-01-19T09:55:16.738Z,112.26
2023-01-19T09:57:17.254Z,128.28
2023-01-19T10:25:26.584Z,140.85
2023-01-19T11:00:25.600Z,130.67
2023-01-19T11:01:26.019Z,141.23
2023-01-19T11:02:26.366Z,149.12
2023-01-19T11:03:26.590Z,155.21
2023-01-19T11:04:25.820Z,144.03
2023-01-19T11:05:25.681Z,147.73
2023-01-19T11:06:25.540Z,161.06
2023-01-19T11:11:27.550Z,169.03
2023-01-19T11:17:25.687Z,153.46
2023-01-19T11:18:25.844Z,149.14
2023-01-19T11:19:26.124Z,160.36
2023-01-19T11:20:26.287Z,149.44
2023-01-19T11:21:26.550Z,150.66
2023-01-19T11:22:26.751Z,124.92
2023-01-19T11:23:26.938Z,131.54
2023-01-19T11:24:27.214Z,137.10
2023-01-19T11:25:28.032Z,124.80
2023-01-19T11:26:27.250Z,88.67
2023-01-19T11:27:27.073Z,91.48
2023-01-19T11:28:26.919Z,76.74
2023-01-19T11:29:26.814Z,83.76
2023-01-19T11:30:26.646Z,101.64
2023-01-19T11:31:26.572Z,160.43
2023-01-19T11:32:26.312Z,144.12
2023-01-19T11:33:27.038Z,150.95
2023-01-19T11:34:26.023Z,131.72
2023-01-19T11:35:25.876Z,129.97
2023-01-19T11:36:25.715Z,139.89
2023-01-19T11:37:25.561Z,156.54
2023-01-19T11:59:25.535Z,134.86
2023-01-19T12:00:25.661Z,132.80
2023-01-19T12:01:25.932Z,142.25
2023-01-19T12:02:26.189Z,158.27
2023-01-19T12:03:26.436Z,130.31
2023-01-19T12:04:26.592Z,141.75
2023-01-19T12:05:26.843Z,132.85
2023-01-19T12:06:28.040Z,131.65
2023-01-19T12:07:27.542Z,124.11
2023-01-19T12:08:26.697Z,122.07
2023-01-19T12:09:27.547Z,120.04
2023-01-19T12:10:26.341Z,117.10
2023-01-19T12:11:26.247Z,123.61
2023-01-19T12:12:26.447Z,66.42
2023-01-19T12:13:26.724Z,56.96
2023-01-19T12:14:26.903Z,98.92
2023-01-19T12:15:27.179Z,101.48
2023-01-19T12:16:27.460Z,214.21
2023-01-19T12:17:27.653Z,191.14
2023-01-19T12:18:27.930Z,187.27
2023-01-19T12:19:28.155Z,209.65
2023-01-19T12:20:28.405Z,171.96
2023-01-19T12:52:36.080Z,144.05
2023-01-19T13:04:36.542Z,92.99
2023-01-19T13:05:35.808Z,91.82
2023-01-19T13:06:35.654Z,87.13
2023-01-19T13:08:35.549Z,128.15
2023-01-19T13:11:35.601Z,177.24
2023-01-19T13:12:35.916Z,195.67
2023-01-19T13:13:36.081Z,203.95
2023-01-19T13:14:37.073Z,159.84
2023-01-19T13:15:36.351Z,144.96
2023-01-19T13:16:36.066Z,149.47
2023-01-19T13:17:35.923Z,121.35
2023-01-19T13:18:35.765Z,100.76
2023-01-19T13:19:35.633Z,109.59
2023-01-19T13:24:35.624Z,122.36
2023-01-19T13:25:35.916Z,100.09
2023-01-19T13:26:36.095Z,111.08
2023-01-19T13:27:38.077Z,99.05
2023-01-19T13:28:36.213Z,82.57
2023-01-19T13:29:36.079Z,79.70
2023-01-19T13:30:36.074Z,93.84
2023-01-19T13:31:35.782Z,96.23
2023-01-19T13:32:35.622Z,99.15
2023-01-19T13:39:35.559Z,46.00
2023-01-19T13:45:37.133Z,65.34
2023-01-19T13:51:35.539Z,116.53
2023-01-19T13:52:35.739Z,140.19
2023-01-19T13:53:36.041Z,156.12
2023-01-19T13:54:36.217Z,149.11
2023-01-19T13:55:36.422Z,136.36
2023-01-19T13:56:36.688Z,146.77
2023-01-19T13:57:36.937Z,143.69
2023-01-19T13:58:37.175Z,126.46
2023-01-19T13:59:37.326Z,103.04
2023-01-19T14:00:37.604Z,108.57
2023-01-19T14:01:37.937Z,131.37
2023-01-19T14:02:38.713Z,146.09
2023-01-19T14:03:37.918Z,146.66
2023-01-19T14:04:37.741Z,139.11
2023-01-19T14:05:37.733Z,144.76
2023-01-19T14:06:37.437Z,135.45
2023-01-19T14:07:37.347Z,134.83
2023-01-19T14:08:37.406Z,159.08
2023-01-19T14:09:37.676Z,134.48
2023-01-19T14:10:37.902Z,136.26
2023-01-19T14:11:39.049Z,123.11
2023-01-19T14:12:48.163Z,122.27
2023-01-19T14:13:38.974Z,122.97
2023-01-19T14:14:37.625Z,123.90
2023-01-19T14:15:37.718Z,119.83
2023-01-19T14:16:38.045Z,119.67
2023-01-19T14:17:38.233Z,92.87
2023-01-19T14:18:38.444Z,99.31
2023-01-19T14:19:40.651Z,118.97
2023-01-19T14:20:38.448Z,120.77
2023-01-19T14:21:38.298Z,137.98
2023-01-19T14:22:39.149Z,133.52
2023-01-19T14:23:37.972Z,133.76
2023-01-19T14:24:37.817Z,100.44
2023-01-19T14:25:37.668Z,84.48
2023-01-19T14:26:37.694Z,55.96
2023-01-19T14:27:37.353Z,53.55
2023-01-19T14:28:37.376Z,50.83
2023-01-19T14:29:37.219Z,42.73
2023-01-19T14:30:37.197Z,33.74
2023-01-19T14:31:37.316Z,25.48
2023-01-19T14:32:38.144Z,26.00
2023-01-19T14:33:37.008Z,23.52
2023-01-19T14:34:36.835Z,26.84
2023-01-19T14:35:36.868Z,30.92
2023-01-19T14:36:37.075Z,34.68
2023-01-19T14:37:37.218Z,16.96
2023-01-19T14:38:37.489Z,6.41
2023-01-19T14:39:37.752Z,19.78
2023-01-19T14:40:37.825Z,31.01
2023-01-19T14:41:38.068Z,78.66
2023-01-19T14:42:38.261Z,97.85
2023-01-19T14:43:38.486Z,68.08
2023-01-19T14:44:38.699Z,44.80
2023-01-19T14:45:39.548Z,73.64
2023-01-19T14:46:38.765Z,66.22
2023-01-19T14:47:38.548Z,41.50
2023-01-19T14:48:39.056Z,68.44
2023-01-19T14:49:38.382Z,53.94
2023-01-19T14:50:38.270Z,69.53
2023-01-19T14:51:39.071Z,77.20
2023-01-19T14:52:38.291Z,87.04
2023-01-19T14:53:38.162Z,66.46
2023-01-19T14:54:38.050Z,75.02
2023-01-19T14:55:38.255Z,61.24
2023-01-19T14:56:38.511Z,51.30
2023-01-19T14:57:38.673Z,64.34
2023-01-19T14:58:38.948Z,41.37
2023-01-19T14:59:39.120Z,27.65
2023-01-19T15:00:39.354Z,42.79
2023-01-19T15:01:39.571Z,25.40
2023-01-19T15:02:39.668Z,30.52
2023-01-19T15:03:45.472Z,74.59
2023-01-19T15:04:40.789Z,50.13
2023-01-19T15:05:39.719Z,55.50
2023-01-19T15:06:39.499Z,62.39
2023-01-19T15:07:39.557Z,58.99
2023-01-19T15:08:39.851Z,59.98
2023-01-19T15:09:40.021Z,50.28
2023-01-19T15:10:40.230Z,43.39
2023-01-19T15:11:40.503Z,50.10
2023-01-19T15:12:40.755Z,58.40
2023-01-19T15:13:41.004Z,41.13
2023-01-19T15:14:41.288Z,34.56
2023-01-19T15:15:41.481Z,69.00
2023-01-19T15:16:41.778Z,50.21
2023-01-19T15:17:41.954Z,40.20
2023-01-19T15:18:44.080Z,52.49
2023-01-19T15:19:42.057Z,94.53
2023-01-19T15:20:41.893Z,139.30
2023-01-19T15:21:41.891Z,119.08
2023-01-19T15:22:42.177Z,127.17
2023-01-19T15:23:42.435Z,91.61
2023-01-19T15:24:42.264Z,88.94
2023-01-19T15:25:42.092Z,70.59
2023-01-19T15:26:41.944Z,66.25
2023-01-19T15:27:41.796Z,53.28
2023-01-19T15:28:42.557Z,88.33
2023-01-19T15:29:41.480Z,91.64
2023-01-19T15:30:41.393Z,41.18
2023-01-19T15:31:41.319Z,47.31
2023-01-19T15:32:41.593Z,19.88
2023-01-19T15:33:41.822Z,15.11
2023-01-19T15:34:42.023Z,25.41
2023-01-19T15:35:42.559Z,19.29
2023-01-19T15:36:45.585Z,26.08
2023-01-19T15:37:41.807Z,32.53
2023-01-19T15:38:42.578Z,38.41
2023-01-19T15:39:41.515Z,59.61
2023-01-19T15:40:41.516Z,65.58
2023-01-19T15:41:41.726Z,60.98
2023-01-19T15:42:42.003Z,46.24
2023-01-19T15:43:42.217Z,41.99
2023-01-19T15:44:42.487Z,67.52
2023-01-19T15:45:42.739Z,61.91
2023-01-19T15:46:43.010Z,42.29
2023-01-19T15:47:43.200Z,27.41
2023-01-19T15:48:43.452Z,46.03
2023-01-19T15:49:44.696Z,17.70
2023-01-19T15:50:43.533Z,16.24
2023-01-19T15:51:43.381Z,48.36
2023-01-19T15:52:43.227Z,55.61
2023-01-19T15:53:43.064Z,82.72
2023-01-19T15:54:42.912Z,96.09
2023-01-19T15:55:42.744Z,116.04
2023-01-19T15:56:42.600Z,112.45
2023-01-19T15:57:42.663Z,113.24
2023-01-19T15:58:42.869Z,117.89
2023-01-19T15:59:43.104Z,94.62
2023-01-19T16:00:43.419Z,107.56
2023-01-19T16:01:43.707Z,112.51
2023-01-19T16:02:43.833Z,113.74
2023-01-19T16:03:44.022Z,109.45
2023-01-19T16:04:44.298Z,118.25
2023-01-19T16:05:44.495Z,114.30
2023-01-19T16:06:44.722Z,109.61
2023-01-19T16:07:45.011Z,121.46
2023-01-19T16:08:45.238Z,122.99
2023-01-19T16:09:45.429Z,121.40
2023-01-19T16:10:45.634Z,131.74
2023-01-19T16:11:45.909Z,116.20
2023-01-19T16:12:46.112Z,116.26
2023-01-19T16:13:46.391Z,119.14
2023-01-19T16:14:46.667Z,116.78
2023-01-19T16:15:46.892Z,110.04
2023-01-19T16:16:47.152Z,100.73
2023-01-19T16:17:47.317Z,109.82
2023-01-19T16:18:47.592Z,95.22
2023-01-19T16:19:47.837Z,109.33
2023-01-19T16:20:48.087Z,120.78
2023-01-19T16:21:48.316Z,116.61
2023-01-19T16:22:49.068Z,126.08
2023-01-19T16:23:48.381Z,128.92
2023-01-19T16:24:48.306Z,123.31
2023-01-19T16:25:48.603Z,144.22
2023-01-19T16:26:48.802Z,146.65
2023-01-19T16:27:48.992Z,142.22
2023-01-19T16:28:49.275Z,120.47
2023-01-19T16:29:49.547Z,116.30
2023-01-19T16:30:49.804Z,132.99
2023-01-19T16:31:50.001Z,145.13
2023-01-19T16:32:50.230Z,142.39
2023-01-19T16:33:50.421Z,148.25
2023-01-19T16:34:50.715Z,153.75
2023-01-19T16:35:50.895Z,161.66
2023-01-19T16:36:51.188Z,162.66
2023-01-19T16:37:51.485Z,140.48
2023-01-19T16:38:51.666Z,134.68
2023-01-19T16:39:51.948Z,137.60
2023-01-19T16:40:52.144Z,114.26
2023-01-19T16:41:52.429Z,108.24
2023-01-19T16:42:52.645Z,115.58
2023-01-19T16:43:52.905Z,119.65
2023-01-19T16:44:53.101Z,131.37
2023-01-19T16:45:53.334Z,120.86
2023-01-19T16:46:53.561Z,144.28
2023-01-19T16:47:53.762Z,125.42
2023-01-19T16:48:54.032Z,101.54
2023-01-19T16:54:55.518Z,64.49
2023-01-19T16:55:55.795Z,69.05
2023-01-19T16:56:55.980Z,76.88
2023-01-19T16:57:56.265Z,92.24
2023-01-19T17:35:05.723Z,139.08
2023-01-19T17:36:05.918Z,151.92
2023-01-19T18:20:15.532Z,116.95
2023-01-19T18:21:15.788Z,96.54
2023-01-19T18:22:15.985Z,81.36
2023-01-19T18:23:16.206Z,81.57
2023-01-19T19:09:25.700Z,140.81
2023-01-19T19:10:25.873Z,128.45
2023-01-19T19:11:26.066Z,119.49
2023-01-19T19:12:26.276Z,131.36
2023-01-19T19:13:26.572Z,141.11
2023-01-19T19:14:26.736Z,143.33
2023-01-19T19:15:27.044Z,125.36
2023-01-19T19:16:27.227Z,115.16
2023-01-19T19:17:27.417Z,126.06
2023-01-19T19:18:27.631Z,132.17
2023-01-19T19:19:27.848Z,142.52
2023-01-19T19:20:28.047Z,123.09
2023-01-19T19:21:28.264Z,104.58
2023-01-19T19:22:28.488Z,117.46
2023-01-19T19:23:28.704Z,123.99
2023-01-19T19:24:28.918Z,109.40
2023-01-19T19:25:29.186Z,104.03
2023-01-19T19:26:29.421Z,98.08
2023-01-19T19:27:29.622Z,90.12
2023-01-19T19:28:29.839Z,83.24
2023-01-19T19:29:30.043Z,86.68
2023-01-19T19:30:30.293Z,88.12
2023-01-19T19:31:30.501Z,95.66
2023-01-19T19:32:30.670Z,109.31
2023-01-19T19:33:30.880Z,83.09
2023-01-19T19:34:31.088Z,82.64
2023-01-19T19:35:31.297Z,55.01
2023-01-19T19:36:31.501Z,43.87
2023-01-19T19:37:31.704Z,51.46
2023-01-19T19:38:31.895Z,51.49
2023-01-19T19:52:35.587Z,58.56
2023-01-19T20:00:35.755Z,52.85
2023-01-19T20:01:36.114Z,42.87
2023-01-19T20:02:36.158Z,45.46
2023-01-19T20:03:36.382Z,51.59
2023-01-19T20:04:36.614Z,33.54
2023-01-19T20:05:36.808Z,28.38
2023-01-19T20:06:37.015Z,33.55
2023-01-19T20:07:37.238Z,36.94
2023-01-19T20:08:37.472Z,29.48
2023-01-19T20:09:37.660Z,23.93
2023-01-19T20:10:37.863Z,43.39
2023-01-19T20:11:38.098Z,56.22
2023-01-19T20:12:38.324Z,43.77
2023-01-19T20:13:38.569Z,38.49
2023-01-19T20:14:38.776Z,61.75
2023-01-19T20:15:38.982Z,86.22
2023-01-19T20:16:39.212Z,64.09
2023-01-19T20:17:39.455Z,58.95
2023-01-19T20:18:39.680Z,55.64
2023-01-19T20:19:39.909Z,40.09
2023-01-19T20:20:40.129Z,43.21
2023-01-19T20:21:40.350Z,21.66
2023-01-19T20:22:40.568Z,21.45
2023-01-19T20:23:40.786Z,47.71
2023-01-19T20:24:41.124Z,37.30
2023-01-19T20:25:41.308Z,65.14
2023-01-19T20:26:41.515Z,76.16
2023-01-19T20:27:43.751Z,82.82
2023-01-19T20:28:41.586Z,85.89
2023-01-19T20:29:41.452Z,91.20
2023-01-19T20:30:41.342Z,75.85
2023-01-19T20:31:41.238Z,76.46
2023-01-19T20:32:41.056Z,81.46
2023-01-19T20:33:40.922Z,71.08
2023-01-19T20:34:40.783Z,61.93
2023-01-19T20:35:40.644Z,83.27
2023-01-19T20:36:40.541Z,72.09
2023-01-19T20:37:40.720Z,72.35
2023-01-19T20:38:40.994Z,104.75
2023-01-19T20:39:41.210Z,109.65
2023-01-19T20:40:41.438Z,87.55
2023-01-19T20:41:41.650Z,82.48
2023-01-19T20:42:41.907Z,80.77
2023-01-19T20:43:42.144Z,84.99
2023-01-19T20:44:42.331Z,79.42
2023-01-19T20:59:45.669Z,142.77
2023-01-19T21:00:45.873Z,133.84
2023-01-19T21:01:46.784Z,132.36
2023-01-19T21:02:45.986Z,137.97
2023-01-19T21:03:45.779Z,141.04
2023-01-19T21:04:46.504Z,129.22
2023-01-19T21:05:45.626Z,120.49
2023-01-19T21:06:46.087Z,125.22
2023-01-19T21:13:45.725Z,145.91
2023-01-19T21:14:45.976Z,129.21
2023-01-19T21:15:46.194Z,132.50
2023-01-19T21:16:46.392Z,130.14
2023-01-19T21:17:46.631Z,123.15
2023-01-19T21:18:46.926Z,111.52
2023-01-19T21:19:47.160Z,116.97
2023-01-19T21:20:47.291Z,125.65
2023-01-19T21:54:55.585Z,41.51
2023-01-19T21:55:55.776Z,32.87
2023-01-19T21:56:56.017Z,20.80
2023-01-19T21:57:56.207Z,27.54
2023-01-19T21:58:56.490Z,25.33
2023-01-19T21:59:56.706Z,33.23
2023-01-19T22:00:56.968Z,48.25
2023-01-19T22:03:57.622Z,25.12
2023-01-19T22:36:05.773Z,58.15
2023-01-19T22:37:06.031Z,65.27
2023-01-19T22:38:06.253Z,56.33
2023-01-19T22:39:06.477Z,48.28
2023-01-19T22:40:06.760Z,34.41
2023-01-19T22:41:07.094Z,30.90
2023-01-19T22:42:07.327Z,25.01
2023-01-19T22:43:07.542Z,26.56
2023-01-19T22:44:07.889Z,34.90
2023-01-19T22:45:08.069Z,42.46
2023-01-19T22:46:08.891Z,42.80
2023-01-19T22:47:08.240Z,44.88
2023-01-19T22:48:08.118Z,49.96
2023-01-19T22:49:08.125Z,41.62
2023-01-19T22:50:08.402Z,41.60
2023-01-19T22:51:08.636Z,37.07
2023-01-19T22:52:08.924Z,35.29
2023-01-19T22:53:09.208Z,39.95
2023-01-19T22:54:09.437Z,49.29
2023-01-19T22:55:09.704Z,67.91
2023-01-19T22:56:09.975Z,54.35
2023-01-19T22:57:10.200Z,67.35
2023-01-19T22:58:10.443Z,61.66
2023-01-19T22:59:10.668Z,70.82
2023-01-19T23:00:10.950Z,79.18
2023-01-19T23:01:11.222Z,71.62
2023-01-19T23:02:11.418Z,73.08
2023-01-19T23:03:11.637Z,82.28
2023-01-19T23:04:11.878Z,69.74
2023-01-19T23:05:12.648Z,62.08
2023-01-19T23:06:12.017Z,61.25
2023-01-19T23:07:11.892Z,72.85
2023-01-19T23:08:11.807Z,50.81
2023-01-19T23:09:11.698Z,53.55
2023-01-19T23:10:11.611Z,56.20
2023-01-19T23:11:11.593Z,52.83
2023-01-19T23:12:11.432Z,64.27
2023-01-19T23:13:11.318Z,62.06
2023-01-19T23:14:11.224Z,64.89
2023-01-19T23:15:11.405Z,79.67
2023-01-19T23:16:11.011Z,63.65
2023-01-19T23:17:10.904Z,52.44
2023-01-19T23:18:10.796Z,53.94
2023-01-19T23:19:10.717Z,62.27
2023-01-19T23:20:10.594Z,71.33
2023-01-19T23:21:10.511Z,68.21
2023-01-19T23:22:10.385Z,69.59
2023-01-19T23:23:10.278Z,66.49
2023-01-19T23:24:10.170Z,43.78
2023-01-19T23:25:10.104Z,43.55
2023-01-19T23:26:10.034Z,55.79
2023-01-19T23:27:09.928Z,59.69
2023-01-19T23:28:09.823Z,51.42
2023-01-19T23:29:09.737Z,42.18
2023-01-19T23:30:09.677Z,46.79
2023-01-19T23:31:09.639Z,45.20
2023-01-19T23:32:09.501Z,44.93
2023-01-19T23:33:09.437Z,46.71
2023-01-19T23:34:09.357Z,46.73
2023-01-19T23:35:09.288Z,58.44
2023-01-19T23:36:09.191Z,45.05
2023-01-19T23:37:09.106Z,65.71
2023-01-19T23:38:09.023Z,95.68
2023-01-19T23:39:08.943Z,93.18
2023-01-19T23:40:08.885Z,69.37
2023-01-19T23:41:08.822Z,59.46
2023-01-19T23:42:08.770Z,51.83
2023-01-19T23:43:08.851Z,59.93
2023-01-19T23:44:09.098Z,61.37
2023-01-19T23:45:09.381Z,58.51
2023-01-19T23:46:09.695Z,63.45
2023-01-19T23:47:09.896Z,85.21
2023-01-19T23:48:10.137Z,89.32
2023-01-19T23:49:10.365Z,72.40
2023-01-19T23:50:10.604Z,70.19
2023-01-19T23:51:10.842Z,65.35
2023-01-19T23:52:11.085Z,61.59
2023-01-19T23:53:11.331Z,65.26
2023-01-19T23:54:11.582Z,61.00
2023-01-19T23:55:12.223Z,63.54
2023-01-19T23:56:11.785Z,80.73
2023-01-19T23:57:11.807Z,68.03
2023-01-19T23:58:11.656Z,65.13
2023-01-19T23:59:11.788Z,75.78
